sensor_id;sensor_type;location;lat;lon;timestamp;pressure;altitude;pressure_sealevel;temperature;humidity
60212;BME280;46079;48.686;15.598;2023-02-04T00:01:34;99807.47;;;19.41;38.11
60212;BME280;46079;48.686;15.598;2023-02-04T00:04:00;99804.84;;;19.41;38.11
60212;BME280;46079;48.686;15.598;2023-02-04T00:06:25;99806.63;;;19.40;37.91
60212;BME280;46079;48.686;15.598;2023-02-04T00:08:51;99815.50;;;19.39;38.08
60212;BME280;46079;48.686;15.598;2023-02-04T00:11:16;99805.00;;;19.39;37.96
60212;BME280;46079;48.686;15.598;2023-02-04T00:13:42;99821.56;;;19.40;38.09
60212;BME280;46079;48.686;15.598;2023-02-04T00:16:07;99814.50;;;19.40;38.06
60212;BME280;46079;48.686;15.598;2023-02-04T00:18:33;99816.44;;;19.38;38.09
60212;BME280;46079;48.686;15.598;2023-02-04T00:20:58;99820.84;;;19.38;37.92
60212;BME280;46079;48.686;15.598;2023-02-04T00:23:24;99808.56;;;19.38;38.01
60212;BME280;46079;48.686;15.598;2023-02-04T00:25:49;99824.31;;;19.38;37.94
60212;BME280;46079;48.686;15.598;2023-02-04T00:28:15;99817.41;;;19.37;38.10
60212;BME280;46079;48.686;15.598;2023-02-04T00:30:40;99801.66;;;19.37;38.13
60212;BME280;46079;48.686;15.598;2023-02-04T00:33:05;99812.97;;;19.38;38.10
60212;BME280;46079;48.686;15.598;2023-02-04T00:35:31;99806.91;;;19.37;38.00
60212;BME280;46079;48.686;15.598;2023-02-04T00:37:56;99814.78;;;19.37;37.97
60212;BME280;46079;48.686;15.598;2023-02-04T00:40:22;99804.28;;;19.37;37.94
60212;BME280;46079;48.686;15.598;2023-02-04T00:42:47;99813.97;;;19.37;37.96
60212;BME280;46079;48.686;15.598;2023-02-04T00:45:12;99803.47;;;19.37;38.04
60212;BME280;46079;48.686;15.598;2023-02-04T00:47:38;99797.38;;;19.36;38.07
60212;BME280;46079;48.686;15.598;2023-02-04T00:50:04;99806.22;;;19.35;38.01
60212;BME280;46079;48.686;15.598;2023-02-04T00:52:29;99798.34;;;19.35;38.00
60212;BME280;46079;48.686;15.598;2023-02-04T00:54:55;99787.84;;;19.35;37.88
60212;BME280;46079;48.686;15.598;2023-02-04T00:57:20;99795.72;;;19.35;37.98
60212;BME280;46079;48.686;15.598;2023-02-04T00:59:46;99780.97;;;19.34;38.02
60212;BME280;46079;48.686;15.598;2023-02-04T01:02:11;99772.25;;;19.33;37.89
60212;BME280;46079;48.686;15.598;2023-02-04T01:04:36;99779.28;;;19.33;38.04
60212;BME280;46079;48.686;15.598;2023-02-04T01:07:02;99766.16;;;19.33;37.88
60212;BME280;46079;48.686;15.598;2023-02-04T01:09:27;99767.97;;;19.32;37.89
60212;BME280;46079;48.686;15.598;2023-02-04T01:11:53;99768.78;;;19.33;38.02
60212;BME280;46079;48.686;15.598;2023-02-04T01:14:18;99759.28;;;19.32;37.77
60212;BME280;46079;48.686;15.598;2023-02-04T01:16:44;99770.59;;;19.32;37.95
60212;BME280;46079;48.686;15.598;2023-02-04T01:19:09;99761.06;;;19.31;37.85
60212;BME280;46079;48.686;15.598;2023-02-04T01:21:35;99772.38;;;19.32;37.90
60212;BME280;46079;48.686;15.598;2023-02-04T01:24:01;99769.06;;;19.30;37.91
60212;BME280;46079;48.686;15.598;2023-02-04T01:26:26;99769.06;;;19.30;37.83
60212;BME280;46079;48.686;15.598;2023-02-04T01:28:51;99770.75;;;19.31;37.88
60212;BME280;46079;48.686;15.598;2023-02-04T01:31:17;99768.13;;;19.31;37.72
60212;BME280;46079;48.686;15.598;2023-02-04T01:33:42;99763.81;;;19.30;37.89
60212;BME280;46079;48.686;15.598;2023-02-04T01:36:08;99763.81;;;19.30;37.83
60212;BME280;46079;48.686;15.598;2023-02-04T01:38:34;99774.31;;;19.30;37.86
60212;BME280;46079;48.686;15.598;2023-02-04T01:41:00;99777.91;;;19.29;37.76
60212;BME280;46079;48.686;15.598;2023-02-04T01:43:26;99768.25;;;19.29;38.00
60212;BME280;46079;48.686;15.598;2023-02-04T01:45:51;99783.16;;;19.29;37.85
60212;BME280;46079;48.686;15.598;2023-02-04T01:48:19;99777.06;;;19.28;37.77
60212;BME280;46079;48.686;15.598;2023-02-04T01:50:50;99775.28;;;19.29;37.81
60212;BME280;46079;48.686;15.598;2023-02-04T01:53:22;99776.25;;;19.28;37.65
60212;BME280;46079;48.686;15.598;2023-02-04T01:55:48;99785.88;;;19.27;37.86
60212;BME280;46079;48.686;15.598;2023-02-04T01:58:14;99789.38;;;19.28;37.80
60212;BME280;46079;48.686;15.598;2023-02-04T02:00:41;99785.06;;;19.27;37.73
60212;BME280;46079;48.686;15.598;2023-02-04T02:03:07;99797.25;;;19.28;37.80
60212;BME280;46079;48.686;15.598;2023-02-04T02:05:44;99793.09;;;19.25;37.86
60212;BME280;46079;48.686;15.598;2023-02-04T02:08:12;99778.19;;;19.26;37.81
60212;BME280;46079;48.686;15.598;2023-02-04T02:10:40;99780.78;;;19.26;37.88
60212;BME280;46079;48.686;15.598;2023-02-04T02:13:07;99786.03;;;19.26;37.67
60212;BME280;46079;48.686;15.598;2023-02-04T02:15:34;99781.75;;;19.25;37.73
60212;BME280;46079;48.686;15.598;2023-02-04T02:18:00;99781.75;;;19.25;37.65
60212;BME280;46079;48.686;15.598;2023-02-04T02:20:26;99766.97;;;19.24;37.53
60212;BME280;46079;48.686;15.598;2023-02-04T02:25:47;99763.53;;;19.23;37.47
60212;BME280;46079;48.686;15.598;2023-02-04T02:28:20;99774.03;;;19.23;37.79
60212;BME280;46079;48.686;15.598;2023-02-04T02:30:47;99748.63;;;19.24;37.67
60212;BME280;46079;48.686;15.598;2023-02-04T02:33:15;99757.47;;;19.23;37.63
60212;BME280;46079;48.686;15.598;2023-02-04T02:35:42;99756.63;;;19.22;37.88
60212;BME280;46079;48.686;15.598;2023-02-04T02:38:10;99753.16;;;19.22;37.73
60212;BME280;46079;48.686;15.598;2023-02-04T02:40:36;99747.91;;;19.22;37.73
60212;BME280;46079;48.686;15.598;2023-02-04T02:43:04;99741.84;;;19.21;37.43
60212;BME280;46079;48.686;15.598;2023-02-04T02:45:31;99735.78;;;19.21;37.74
60212;BME280;46079;48.686;15.598;2023-02-04T02:47:59;99738.41;;;19.21;37.54
60212;BME280;46079;48.686;15.598;2023-02-04T02:50:28;99753.16;;;19.22;37.59
60212;BME280;46079;48.686;15.598;2023-02-04T02:52:55;99753.31;;;19.20;37.62
60212;BME280;46079;48.686;15.598;2023-02-04T02:55:22;99727.91;;;19.21;37.64
60212;BME280;46079;48.686;15.598;2023-02-04T02:57:50;99743.66;;;19.21;37.58
60212;BME280;46079;48.686;15.598;2023-02-04T03:00:21;99739.38;;;19.20;37.83
60212;BME280;46079;48.686;15.598;2023-02-04T03:02:57;99748.06;;;19.20;37.63
60212;BME280;46079;48.686;15.598;2023-02-04T03:05:25;99744.75;;;19.18;37.42
60212;BME280;46079;48.686;15.598;2023-02-04T03:07:51;99738.69;;;19.18;37.50
60212;BME280;46079;48.686;15.598;2023-02-04T03:10:17;99726.50;;;19.17;37.71
60212;BME280;46079;48.686;15.598;2023-02-04T03:12:44;99738.69;;;19.18;37.65
60212;BME280;46079;48.686;15.598;2023-02-04T03:15:10;99728.19;;;19.18;37.52
60212;BME280;46079;48.686;15.598;2023-02-04T03:17:38;99724.75;;;19.17;37.46
60212;BME280;46079;48.686;15.598;2023-02-04T03:20:05;99737.00;;;19.17;37.52
60212;BME280;46079;48.686;15.598;2023-02-04T03:22:30;99716.03;;;19.17;37.70
60212;BME280;46079;48.686;15.598;2023-02-04T03:24:56;99715.22;;;19.16;37.52
60212;BME280;46079;48.686;15.598;2023-02-04T03:27:23;99713.56;;;19.15;37.66
60212;BME280;46079;48.686;15.598;2023-02-04T03:29:49;99692.59;;;19.15;37.58
60212;BME280;46079;48.686;15.598;2023-02-04T03:32:15;99739.78;;;19.15;37.60
60212;BME280;46079;48.686;15.598;2023-02-04T03:34:40;99738.94;;;19.15;37.52
60212;BME280;46079;48.686;15.598;2023-02-04T03:37:07;99740.72;;;19.14;37.56
60212;BME280;46079;48.686;15.598;2023-02-04T03:39:32;99755.50;;;19.15;37.57
60212;BME280;46079;48.686;15.598;2023-02-04T03:41:58;99738.09;;;19.14;37.62
60212;BME280;46079;48.686;15.598;2023-02-04T03:44:23;99731.09;;;19.15;37.50
60212;BME280;46079;48.686;15.598;2023-02-04T03:46:53;99755.63;;;19.14;37.30
60212;BME280;46079;48.686;15.598;2023-02-04T03:49:29;99763.50;;;19.14;37.72
60212;BME280;46079;48.686;15.598;2023-02-04T03:51:56;99760.88;;;19.14;37.53
60212;BME280;46079;48.686;15.598;2023-02-04T03:54:22;99763.50;;;19.14;37.53
60212;BME280;46079;48.686;15.598;2023-02-04T03:56:47;99758.53;;;19.10;37.35
60212;BME280;46079;48.686;15.598;2023-02-04T03:59:13;99749.72;;;19.12;37.43
60212;BME280;46079;48.686;15.598;2023-02-04T04:01:38;99768.06;;;19.12;37.68
60212;BME280;46079;48.686;15.598;2023-02-04T04:04:03;99780.47;;;19.09;37.52
60212;BME280;46079;48.686;15.598;2023-02-04T04:06:29;99806.53;;;19.11;37.33
60212;BME280;46079;48.686;15.598;2023-02-04T04:08:56;99772.59;;;19.09;37.44
60212;BME280;46079;48.686;15.598;2023-02-04T04:11:21;99823.94;;;19.12;37.50
60212;BME280;46079;48.686;15.598;2023-02-04T04:13:47;99873.88;;;19.10;37.51
60212;BME280;46079;48.686;15.598;2023-02-04T04:16:12;99894.03;;;19.10;37.41
60212;BME280;46079;48.686;15.598;2023-02-04T04:18:37;99947.28;;;19.10;37.29
60212;BME280;46079;48.686;15.598;2023-02-04T04:21:03;99906.31;;;19.09;37.27
60212;BME280;46079;48.686;15.598;2023-02-04T04:23:28;99905.47;;;19.09;37.11
60212;BME280;46079;48.686;15.598;2023-02-04T04:25:54;99919.41;;;19.09;37.47
60212;BME280;46079;48.686;15.598;2023-02-04T04:28:19;99938.72;;;19.08;37.57
60212;BME280;46079;48.686;15.598;2023-02-04T04:30:45;99948.25;;;19.09;37.40
60212;BME280;46079;48.686;15.598;2023-02-04T04:33:10;99933.47;;;19.08;37.38
60212;BME280;46079;48.686;15.598;2023-02-04T04:35:35;99951.81;;;19.08;37.33
60212;BME280;46079;48.686;15.598;2023-02-04T04:38:02;99951.81;;;19.08;37.54
60212;BME280;46079;48.686;15.598;2023-02-04T04:40:28;99950.16;;;19.07;37.30
60212;BME280;46079;48.686;15.598;2023-02-04T04:42:53;99958.84;;;19.08;37.21
60212;BME280;46079;48.686;15.598;2023-02-04T04:45:19;99961.63;;;19.06;37.57
60212;BME280;46079;48.686;15.598;2023-02-04T04:47:45;99976.50;;;19.06;37.33
60212;BME280;46079;48.686;15.598;2023-02-04T04:50:11;99976.50;;;19.06;37.58
60212;BME280;46079;48.686;15.598;2023-02-04T04:52:37;99979.13;;;19.06;37.29
60212;BME280;46079;48.686;15.598;2023-02-04T04:55:03;99999.28;;;19.05;37.44
60212;BME280;46079;48.686;15.598;2023-02-04T04:57:30;100008.94;;;19.05;37.37
60212;BME280;46079;48.686;15.598;2023-02-04T04:59:55;99998.44;;;19.05;37.41
60212;BME280;46079;48.686;15.598;2023-02-04T05:02:20;100026.44;;;19.04;37.40
60212;BME280;46079;48.686;15.598;2023-02-04T05:04:46;100038.75;;;19.04;37.51
60212;BME280;46079;48.686;15.598;2023-02-04T05:07:11;100043.00;;;19.05;37.27
60212;BME280;46079;48.686;15.598;2023-02-04T05:09:37;100055.28;;;19.04;37.31
60212;BME280;46079;48.686;15.598;2023-02-04T05:12:02;100074.63;;;19.03;37.46
60212;BME280;46079;48.686;15.598;2023-02-04T05:14:28;100071.03;;;19.04;37.51
60212;BME280;46079;48.686;15.598;2023-02-04T05:16:53;100088.66;;;19.02;37.45
60212;BME280;46079;48.686;15.598;2023-02-04T05:19:19;100107.84;;;19.03;37.45
60212;BME280;46079;48.686;15.598;2023-02-04T05:21:44;100097.34;;;19.03;37.18
60212;BME280;46079;48.686;15.598;2023-02-04T05:24:09;100124.44;;;19.03;37.43
60212;BME280;46079;48.686;15.598;2023-02-04T05:26:44;100129.78;;;19.02;37.32
60212;BME280;46079;48.686;15.598;2023-02-04T05:29:10;100125.34;;;19.02;37.43
60212;BME280;46079;48.686;15.598;2023-02-04T05:31:35;100121.91;;;19.02;37.37
60212;BME280;46079;48.686;15.598;2023-02-04T05:34:01;100139.44;;;19.01;37.70
60212;BME280;46079;48.686;15.598;2023-02-04T05:36:26;100163.84;;;19.02;37.59
60212;BME280;46079;48.686;15.598;2023-02-04T05:38:52;100141.22;;;19.01;37.24
60212;BME280;46079;48.686;15.598;2023-02-04T05:41:17;100164.81;;;19.01;37.18
60212;BME280;46079;48.686;15.598;2023-02-04T05:43:43;100164.94;;;18.99;37.40
60212;BME280;46079;48.686;15.598;2023-02-04T05:46:08;100193.78;;;18.99;37.33
60212;BME280;46079;48.686;15.598;2023-02-04T05:48:34;100186.72;;;19.00;37.45
60212;BME280;46079;48.686;15.598;2023-02-04T05:50:59;100198.28;;;18.97;37.34
60212;BME280;46079;48.686;15.598;2023-02-04T05:53:24;100192.13;;;18.98;37.24
60212;BME280;46079;48.686;15.598;2023-02-04T05:55:50;100207.84;;;18.98;37.34
60212;BME280;46079;48.686;15.598;2023-02-04T05:58:15;100214.03;;;18.97;37.34
60212;BME280;46079;48.686;15.598;2023-02-04T06:00:41;100241.09;;;18.98;37.32
60212;BME280;46079;48.686;15.598;2023-02-04T06:03:06;100255.97;;;18.97;37.20
60212;BME280;46079;48.686;15.598;2023-02-04T06:05:32;100270.03;;;18.96;37.20
60212;BME280;46079;48.686;15.598;2023-02-04T06:07:57;100281.34;;;18.97;37.34
60212;BME280;46079;48.686;15.598;2023-02-04T06:10:23;100270.88;;;18.97;37.33
60212;BME280;46079;48.686;15.598;2023-02-04T06:12:48;100302.31;;;18.97;37.23
60212;BME280;46079;48.686;15.598;2023-02-04T06:15:14;100315.56;;;18.95;37.32
60212;BME280;46079;48.686;15.598;2023-02-04T06:17:39;100326.06;;;18.95;37.34
60212;BME280;46079;48.686;15.598;2023-02-04T06:20:06;100335.69;;;18.95;37.38
60212;BME280;46079;48.686;15.598;2023-02-04T06:22:31;100340.09;;;18.94;37.27
60212;BME280;46079;48.686;15.598;2023-02-04T06:24:58;100345.34;;;18.94;37.36
60212;BME280;46079;48.686;15.598;2023-02-04T06:27:23;100371.56;;;18.94;37.42
60212;BME280;46079;48.686;15.598;2023-02-04T06:29:50;100382.03;;;18.94;37.11
60212;BME280;46079;48.686;15.598;2023-02-04T06:32:16;100397.75;;;18.94;37.25
60212;BME280;46079;48.686;15.598;2023-02-04T06:34:41;100390.03;;;18.93;37.27
60212;BME280;46079;48.686;15.598;2023-02-04T06:37:07;100405.75;;;18.93;37.22
60212;BME280;46079;48.686;15.598;2023-02-04T06:39:33;100432.81;;;18.93;37.08
60212;BME280;46079;48.686;15.598;2023-02-04T06:41:58;100439.84;;;18.93;37.06
60212;BME280;46079;48.686;15.598;2023-02-04T06:44:24;100435.53;;;18.92;37.21
60212;BME280;46079;48.686;15.598;2023-02-04T06:46:49;100457.31;;;18.92;37.17
60212;BME280;46079;48.686;15.598;2023-02-04T06:49:14;100460.09;;;18.91;37.27
60212;BME280;46079;48.686;15.598;2023-02-04T06:51:40;100461.75;;;18.92;37.23
60212;BME280;46079;48.686;15.598;2023-02-04T06:54:05;100448.78;;;18.90;37.13
60212;BME280;46079;48.686;15.598;2023-02-04T06:56:31;100464.50;;;18.90;37.26
60212;BME280;46079;48.686;15.598;2023-02-04T06:58:56;100469.75;;;18.90;37.31
60212;BME280;46079;48.686;15.598;2023-02-04T07:01:21;100467.94;;;18.91;37.31
60212;BME280;46079;48.686;15.598;2023-02-04T07:03:47;100485.34;;;18.92;37.22
60212;BME280;46079;48.686;15.598;2023-02-04T07:06:12;100515.97;;;18.91;37.19
60212;BME280;46079;48.686;15.598;2023-02-04T07:08:38;100490.72;;;18.90;37.14
60212;BME280;46079;48.686;15.598;2023-02-04T07:11:03;100520.47;;;18.89;37.21
60212;BME280;46079;48.686;15.598;2023-02-04T07:13:28;100530.13;;;18.88;37.04
60212;BME280;46079;48.686;15.598;2023-02-04T07:15:54;100546.69;;;18.89;37.15
60212;BME280;46079;48.686;15.598;2023-02-04T07:18:19;100566.81;;;18.88;37.22
60212;BME280;46079;48.686;15.598;2023-02-04T07:20:45;100572.06;;;18.88;37.37
60212;BME280;46079;48.686;15.598;2023-02-04T07:23:11;100592.22;;;18.88;37.22
60212;BME280;46079;48.686;15.598;2023-02-04T07:25:36;100588.84;;;18.86;37.18
60212;BME280;46079;48.686;15.598;2023-02-04T07:28:03;100604.59;;;18.86;37.08
60212;BME280;46079;48.686;15.598;2023-02-04T07:30:30;100625.47;;;18.87;37.09
60212;BME280;46079;48.686;15.598;2023-02-04T07:32:56;100639.63;;;18.85;37.39
60212;BME280;46079;48.686;15.598;2023-02-04T07:35:21;100654.38;;;18.86;37.51
60212;BME280;46079;48.686;15.598;2023-02-04T07:37:48;100662.25;;;18.86;37.25
60212;BME280;46079;48.686;15.598;2023-02-04T07:40:14;100673.69;;;18.85;37.13
60212;BME280;46079;48.686;15.598;2023-02-04T07:42:40;100665.00;;;18.84;37.20
60212;BME280;46079;48.686;15.598;2023-02-04T07:45:05;100681.56;;;18.85;36.87
60212;BME280;46079;48.686;15.598;2023-02-04T07:47:31;100677.97;;;18.86;37.02
60212;BME280;46079;48.686;15.598;2023-02-04T07:49:56;100684.19;;;18.85;37.03
60212;BME280;46079;48.686;15.598;2023-02-04T07:52:23;100683.34;;;18.84;37.13
60212;BME280;46079;48.686;15.598;2023-02-04T07:54:48;100696.44;;;18.84;37.21
60212;BME280;46079;48.686;15.598;2023-02-04T07:57:14;100713.00;;;18.85;37.20
60212;BME280;46079;48.686;15.598;2023-02-04T07:59:40;100707.78;;;18.85;37.25
60212;BME280;46079;48.686;15.598;2023-02-04T08:02:06;100706.94;;;18.84;37.21
60212;BME280;46079;48.686;15.598;2023-02-04T08:04:31;100700.00;;;18.83;37.24
60212;BME280;46079;48.686;15.598;2023-02-04T08:06:57;100716.56;;;18.84;36.98
60212;BME280;46079;48.686;15.598;2023-02-04T08:09:22;100715.63;;;18.85;36.94
60212;BME280;46079;48.686;15.598;2023-02-04T08:11:51;100734.91;;;18.84;37.03
60212;BME280;46079;48.686;15.598;2023-02-04T08:14:16;100723.50;;;18.85;37.08
60212;BME280;46079;48.686;15.598;2023-02-04T08:16:42;100734.81;;;18.85;37.11
60212;BME280;46079;48.686;15.598;2023-02-04T08:19:07;100765.44;;;18.85;36.95
60212;BME280;46079;48.686;15.598;2023-02-04T08:21:33;100790.81;;;18.84;36.95
60212;BME280;46079;48.686;15.598;2023-02-04T08:23:58;100774.22;;;18.84;36.91
60212;BME280;46079;48.686;15.598;2023-02-04T08:26:24;100784.72;;;18.84;37.37
60212;BME280;46079;48.686;15.598;2023-02-04T08:28:49;100779.59;;;18.82;36.97
60212;BME280;46079;48.686;15.598;2023-02-04T08:31:14;100783.78;;;18.85;36.90
60212;BME280;46079;48.686;15.598;2023-02-04T08:33:40;100788.06;;;18.86;36.91
60212;BME280;46079;48.686;15.598;2023-02-04T08:36:06;100801.09;;;18.87;36.73
60212;BME280;46079;48.686;15.598;2023-02-04T08:38:31;100811.56;;;18.87;37.04
60212;BME280;46079;48.686;15.598;2023-02-04T08:40:57;100811.44;;;18.89;36.80
60212;BME280;46079;48.686;15.598;2023-02-04T08:43:24;100830.66;;;18.90;36.79
60212;BME280;46079;48.686;15.598;2023-02-04T08:45:50;100837.56;;;18.91;37.01
60212;BME280;46079;48.686;15.598;2023-02-04T08:48:15;100844.59;;;18.90;36.93
60212;BME280;46079;48.686;15.598;2023-02-04T08:50:41;100848.16;;;18.89;36.84
60212;BME280;46079;48.686;15.598;2023-02-04T08:53:06;100852.47;;;18.90;37.01
60212;BME280;46079;48.686;15.598;2023-02-04T08:55:32;100871.75;;;18.89;36.88
60212;BME280;46079;48.686;15.598;2023-02-04T08:57:57;100881.41;;;18.88;36.89
60212;BME280;46079;48.686;15.598;2023-02-04T09:00:24;100885.72;;;18.90;36.85
60212;BME280;46079;48.686;15.598;2023-02-04T09:02:49;100896.19;;;18.90;36.92
60212;BME280;46079;48.686;15.598;2023-02-04T09:05:15;100905.81;;;18.89;36.72
60212;BME280;46079;48.686;15.598;2023-02-04T09:07:40;100907.53;;;18.90;36.94
60212;BME280;46079;48.686;15.598;2023-02-04T09:10:06;100936.34;;;18.90;36.81
60212;BME280;46079;48.686;15.598;2023-02-04T09:12:32;100938.16;;;18.90;36.87
60212;BME280;46079;48.686;15.598;2023-02-04T09:14:57;100942.53;;;18.89;36.95
60212;BME280;46079;48.686;15.598;2023-02-04T09:17:23;100959.13;;;18.90;36.92
60212;BME280;46079;48.686;15.598;2023-02-04T09:19:48;100957.34;;;18.90;36.92
60212;BME280;46079;48.686;15.598;2023-02-04T09:22:14;100960.88;;;18.89;36.96
60212;BME280;46079;48.686;15.598;2023-02-04T09:24:40;100996.66;;;18.90;36.78
60212;BME280;46079;48.686;15.598;2023-02-04T09:27:05;100992.34;;;18.89;37.00
60212;BME280;46079;48.686;15.598;2023-02-04T09:29:30;100992.34;;;18.89;36.88
60212;BME280;46079;48.686;15.598;2023-02-04T09:31:57;100992.34;;;18.89;36.88
60212;BME280;46079;48.686;15.598;2023-02-04T09:34:22;100995.81;;;18.90;36.95
60212;BME280;46079;48.686;15.598;2023-02-04T09:36:48;101008.81;;;18.91;36.82
60212;BME280;46079;48.686;15.598;2023-02-04T09:39:13;101012.38;;;18.90;36.82
60212;BME280;46079;48.686;15.598;2023-02-04T09:41:39;101015.84;;;18.91;36.85
60212;BME280;46079;48.686;15.598;2023-02-04T09:44:11;101010.59;;;18.91;36.87
60212;BME280;46079;48.686;15.598;2023-02-04T09:46:38;101024.53;;;18.91;36.88
60212;BME280;46079;48.686;15.598;2023-02-04T09:49:04;101011.44;;;18.91;36.81
60212;BME280;46079;48.686;15.598;2023-02-04T09:51:32;101024.53;;;18.91;36.82
60212;BME280;46079;48.686;15.598;2023-02-04T09:54:08;101029.69;;;18.93;36.67
60212;BME280;46079;48.686;15.598;2023-02-04T09:56:36;101026.22;;;18.92;36.85
60212;BME280;46079;48.686;15.598;2023-02-04T09:59:05;101034.06;;;18.92;36.81
60212;BME280;46079;48.686;15.598;2023-02-04T10:01:35;101038.41;;;18.93;36.94
60212;BME280;46079;48.686;15.598;2023-02-04T10:04:01;101049.72;;;18.94;36.88
60212;BME280;46079;48.686;15.598;2023-02-04T10:06:26;101068.91;;;18.94;36.73
60212;BME280;46079;48.686;15.598;2023-02-04T10:08:52;101062.00;;;18.93;36.68
60212;BME280;46079;48.686;15.598;2023-02-04T10:11:19;101087.25;;;18.94;36.87
60212;BME280;46079;48.686;15.598;2023-02-04T10:13:50;101085.47;;;18.95;36.76
60212;BME280;46079;48.686;15.598;2023-02-04T10:16:23;101102.91;;;18.96;36.85
60212;BME280;46079;48.686;15.598;2023-02-04T10:18:57;101102.06;;;18.95;36.71
60212;BME280;46079;48.686;15.598;2023-02-04T10:21:30;101102.78;;;18.97;36.80
60212;BME280;46079;48.686;15.598;2023-02-04T10:23:58;101100.16;;;18.97;36.72
60212;BME280;46079;48.686;15.598;2023-02-04T10:26:27;101095.78;;;18.98;36.82
60212;BME280;46079;48.686;15.598;2023-02-04T10:29:11;101108.03;;;18.97;36.54
60212;BME280;46079;48.686;15.598;2023-02-04T10:31:40;101112.34;;;18.98;36.91
60212;BME280;46079;48.686;15.598;2023-02-04T10:36:37;101121.88;;;18.99;36.57
60212;BME280;46079;48.686;15.598;2023-02-04T10:39:11;101121.06;;;18.99;36.61
60212;BME280;46079;48.686;15.598;2023-02-04T10:41:44;101132.28;;;19.01;36.68
60212;BME280;46079;48.686;15.598;2023-02-04T10:44:12;101133.97;;;19.02;36.67
60212;BME280;46079;48.686;15.598;2023-02-04T10:46:37;101117.41;;;19.01;36.70
60212;BME280;46079;48.686;15.598;2023-02-04T10:49:04;101116.44;;;19.02;36.86
60212;BME280;46079;48.686;15.598;2023-02-04T10:51:31;101126.00;;;19.03;36.73
60212;BME280;46079;48.686;15.598;2023-02-04T10:53:56;101120.78;;;19.03;36.80
60212;BME280;46079;48.686;15.598;2023-02-04T10:56:40;101140.78;;;19.04;36.78
60212;BME280;46079;48.686;15.598;2023-02-04T10:59:17;101126.72;;;19.05;36.76
60212;BME280;46079;48.686;15.598;2023-02-04T11:01:45;101134.59;;;19.05;36.53
60212;BME280;46079;48.686;15.598;2023-02-04T11:04:10;101134.59;;;19.05;36.63
60212;BME280;46079;48.686;15.598;2023-02-04T11:06:35;101131.97;;;19.05;36.75
60212;BME280;46079;48.686;15.598;2023-02-04T11:09:01;101148.47;;;19.07;36.73
60212;BME280;46079;48.686;15.598;2023-02-04T11:11:28;101158.94;;;19.07;36.84
60212;BME280;46079;48.686;15.598;2023-02-04T11:16:28;101171.09;;;19.08;36.71
60212;BME280;46079;48.686;15.598;2023-02-04T11:18:59;101177.09;;;19.10;36.76
60212;BME280;46079;48.686;15.598;2023-02-04T11:26:48;101186.69;;;19.12;36.76
60212;BME280;46079;48.686;15.598;2023-02-04T11:29:31;101183.94;;;19.13;36.42
60212;BME280;46079;48.686;15.598;2023-02-04T11:32:05;101176.91;;;19.14;36.82
60212;BME280;46079;48.686;15.598;2023-02-04T11:34:47;101177.84;;;19.13;36.83
60212;BME280;46079;48.686;15.598;2023-02-04T11:37:17;101190.00;;;19.14;36.71
60212;BME280;46079;48.686;15.598;2023-02-04T11:39:45;101188.22;;;19.14;36.63
60212;BME280;46079;48.686;15.598;2023-02-04T11:42:38;101191.72;;;19.15;36.71
60212;BME280;46079;48.686;15.598;2023-02-04T11:45:13;101191.72;;;19.15;36.70
60212;BME280;46079;48.686;15.598;2023-02-04T11:47:40;101217.94;;;19.15;36.70
60212;BME280;46079;48.686;15.598;2023-02-04T11:50:30;101209.97;;;19.16;36.75
60212;BME280;46079;48.686;15.598;2023-02-04T11:52:57;101217.84;;;19.16;36.73
60212;BME280;46079;48.686;15.598;2023-02-04T11:55:24;101209.88;;;19.18;36.83
60212;BME280;46079;48.686;15.598;2023-02-04T11:57:52;101216.78;;;19.19;36.87
60212;BME280;46079;48.686;15.598;2023-02-04T12:00:24;101217.53;;;19.21;36.77
60212;BME280;46079;48.686;15.598;2023-02-04T12:02:55;101228.03;;;19.21;36.70
60212;BME280;46079;48.686;15.598;2023-02-04T12:05:21;101223.63;;;19.21;36.79
60212;BME280;46079;48.686;15.598;2023-02-04T12:07:47;101212.19;;;19.22;36.87
60212;BME280;46079;48.686;15.598;2023-02-04T12:12:52;101220.06;;;19.22;36.77
60212;BME280;46079;48.686;15.598;2023-02-04T12:15:29;101206.84;;;19.24;36.87
60212;BME280;46079;48.686;15.598;2023-02-04T12:18:02;101206.03;;;19.23;36.78
60212;BME280;46079;48.686;15.598;2023-02-04T12:20:28;101212.94;;;19.24;36.89
60212;BME280;46079;48.686;15.598;2023-02-04T12:22:53;101217.25;;;19.25;36.93
60212;BME280;46079;48.686;15.598;2023-02-04T12:25:19;101210.22;;;19.26;36.64
60212;BME280;46079;48.686;15.598;2023-02-04T12:27:45;101206.66;;;19.27;36.78
60212;BME280;46079;48.686;15.598;2023-02-04T12:30:11;101199.63;;;19.27;36.64
60212;BME280;46079;48.686;15.598;2023-02-04T12:32:37;101202.25;;;19.27;36.81
60212;BME280;46079;48.686;15.598;2023-02-04T12:35:02;101205.72;;;19.28;36.84
60212;BME280;46079;48.686;15.598;2023-02-04T12:37:28;101208.34;;;19.28;36.78
60212;BME280;46079;48.686;15.598;2023-02-04T12:39:54;101211.81;;;19.28;36.66
60212;BME280;46079;48.686;15.598;2023-02-04T12:42:19;101197.84;;;19.28;36.64
60212;BME280;46079;48.686;15.598;2023-02-04T12:44:45;101209.06;;;19.30;36.68
60212;BME280;46079;48.686;15.598;2023-02-04T12:47:10;101212.53;;;19.30;36.65
60212;BME280;46079;48.686;15.598;2023-02-04T12:49:35;101209.06;;;19.30;36.76
60212;BME280;46079;48.686;15.598;2023-02-04T12:52:05;101206.44;;;19.30;36.95
60212;BME280;46079;48.686;15.598;2023-02-04T12:54:31;101222.94;;;19.32;36.65
60212;BME280;46079;48.686;15.598;2023-02-04T12:56:56;101229.97;;;19.31;36.60